createdAt,value
2022-11-20T00:01:30.027Z,5.50
2022-11-20T00:03:58.979Z,5.60
2022-11-20T00:06:27.345Z,5.50
2022-11-20T00:08:57.467Z,5.60
2022-11-20T00:11:26.517Z,5.50
2022-11-20T00:13:56.080Z,5.60
2022-11-20T00:16:25.151Z,5.60
2022-11-20T00:18:52.346Z,5.60
2022-11-20T00:21:24.833Z,5.60
2022-11-20T00:23:55.151Z,5.60
2022-11-20T00:26:23.989Z,5.60
2022-11-20T00:28:54.060Z,5.60
2022-11-20T00:31:21.265Z,5.60
2022-11-20T00:33:48.319Z,5.60
2022-11-20T00:36:23.700Z,5.60
2022-11-20T00:38:55.357Z,5.60
2022-11-20T00:41:22.762Z,5.60
2022-11-20T00:43:49.720Z,5.50
2022-11-20T00:46:19.074Z,5.50
2022-11-20T00:48:46.664Z,5.50
2022-11-20T00:51:16.328Z,5.50
2022-11-20T00:53:43.726Z,5.60
2022-11-20T00:56:16.179Z,5.50
2022-11-20T00:58:45.927Z,5.50
2022-11-20T01:01:18.245Z,5.50
2022-11-20T01:03:50.337Z,5.50
2022-11-20T01:06:18.897Z,5.50
2022-11-20T01:08:46.440Z,5.50
2022-11-20T01:11:19.921Z,5.50
2022-11-20T01:13:48.866Z,5.50
2022-11-20T01:16:21.278Z,5.50
2022-11-20T01:18:50.442Z,5.60
2022-11-20T01:21:22.969Z,5.60
2022-11-20T01:23:50.743Z,5.60
2022-11-20T01:26:20.838Z,5.60
2022-11-20T01:28:48.639Z,5.60
2022-11-20T01:31:23.173Z,5.60
2022-11-20T01:33:52.416Z,5.60
2022-11-20T01:36:21.169Z,5.60
2022-11-20T01:38:48.135Z,5.60
2022-11-20T01:41:36.324Z,5.60
2022-11-20T01:44:04.319Z,5.60
2022-11-20T01:46:33.599Z,5.60
2022-11-20T01:49:05.589Z,5.60
2022-11-20T01:51:44.838Z,5.60
2022-11-20T01:54:22.632Z,5.60
2022-11-20T01:56:52.397Z,5.70
2022-11-20T01:59:20.880Z,5.70
2022-11-20T02:01:48.432Z,5.70
2022-11-20T02:04:17.619Z,5.60
2022-11-20T02:06:52.181Z,5.70
2022-11-20T02:09:19.474Z,5.60
2022-11-20T02:11:46.608Z,5.60
2022-11-20T02:14:14.682Z,5.60
2022-11-20T02:16:46.905Z,5.60
2022-11-20T02:19:27.823Z,5.60
2022-11-20T02:22:11.843Z,5.60
2022-11-20T02:24:39.297Z,5.60
2022-11-20T02:27:13.229Z,5.60
2022-11-20T02:29:47.345Z,5.60
2022-11-20T02:32:26.654Z,5.60
2022-11-20T02:34:54.146Z,5.60
2022-11-20T02:37:21.613Z,5.60
2022-11-20T02:39:52.334Z,5.60
2022-11-20T02:42:19.394Z,5.70
2022-11-20T02:44:46.300Z,5.70
2022-11-20T02:47:13.100Z,5.60
2022-11-20T02:49:39.937Z,5.70
2022-11-20T02:52:06.792Z,5.70
2022-11-20T02:54:33.635Z,5.70
2022-11-20T02:57:00.455Z,5.60
2022-11-20T02:59:27.311Z,5.60
2022-11-20T03:01:54.094Z,5.60
2022-11-20T03:04:21.025Z,5.70
2022-11-20T03:06:47.893Z,5.60
2022-11-20T03:09:14.757Z,5.60
2022-11-20T03:11:41.576Z,5.60
2022-11-20T03:14:08.432Z,5.60
2022-11-20T03:16:35.487Z,5.60
2022-11-20T03:19:02.458Z,5.60
2022-11-20T03:21:29.276Z,5.60
2022-11-20T03:23:56.476Z,5.60
2022-11-20T03:26:26.260Z,5.60
2022-11-20T03:28:55.893Z,5.60
2022-11-20T03:31:25.664Z,5.60
2022-11-20T03:33:53.068Z,5.60
2022-11-20T03:36:21.584Z,5.60
2022-11-20T03:38:49.304Z,5.60
2022-11-20T03:41:21.998Z,5.60
2022-11-20T03:43:57.221Z,5.50
2022-11-20T03:46:24.844Z,5.50
2022-11-20T03:48:52.330Z,5.50
2022-11-20T03:51:28.432Z,5.50
2022-11-20T03:53:58.812Z,5.50
2022-11-20T03:56:29.090Z,5.50
2022-11-20T03:58:56.241Z,5.50
2022-11-20T04:01:32.228Z,5.50
2022-11-20T04:03:59.559Z,5.50
2022-11-20T04:06:29.771Z,5.50
2022-11-20T04:08:57.814Z,5.50
2022-11-20T04:11:28.227Z,5.50
2022-11-20T04:13:58.045Z,5.50
2022-11-20T04:16:27.083Z,5.50
2022-11-20T04:18:55.232Z,5.50
2022-11-20T04:21:22.494Z,5.50
2022-11-20T04:23:50.405Z,5.50
2022-11-20T04:26:17.530Z,5.50
2022-11-20T04:28:44.356Z,5.50
2022-11-20T04:31:12.335Z,5.50
2022-11-20T04:33:40.224Z,5.50
2022-11-20T04:36:13.503Z,5.50
2022-11-20T04:38:41.004Z,5.50
2022-11-20T04:41:11.067Z,5.40
2022-11-20T04:43:38.007Z,5.40
2022-11-20T04:46:04.964Z,5.40
2022-11-20T04:48:31.818Z,5.40
2022-11-20T04:50:58.942Z,5.40
2022-11-20T04:53:25.797Z,5.40
2022-11-20T04:55:52.611Z,5.40
2022-11-20T04:58:19.398Z,5.40
2022-11-20T05:00:46.252Z,5.40
2022-11-20T05:03:13.064Z,5.40
2022-11-20T05:05:39.879Z,5.40
2022-11-20T05:08:06.677Z,5.40
2022-11-20T05:10:33.513Z,5.40
2022-11-20T05:13:00.329Z,5.40
2022-11-20T05:15:27.303Z,5.40
2022-11-20T05:17:54.512Z,5.40
2022-11-20T05:20:21.369Z,5.40
2022-11-20T05:22:48.277Z,5.40
2022-11-20T05:25:15.175Z,5.40
2022-11-20T05:27:42.023Z,5.40
2022-11-20T05:30:09.623Z,5.40
2022-11-20T05:32:36.453Z,5.40
2022-11-20T05:35:03.401Z,5.40
2022-11-20T05:37:30.216Z,5.40
2022-11-20T05:39:57.005Z,5.30
2022-11-20T05:42:32.988Z,5.30
2022-11-20T05:45:00.441Z,5.30
2022-11-20T05:47:34.331Z,5.30
2022-11-20T05:50:01.419Z,5.40
2022-11-20T05:52:31.592Z,5.40
2022-11-20T05:54:58.438Z,5.40
2022-11-20T05:57:25.256Z,5.40
2022-11-20T05:59:52.086Z,5.40
2022-11-20T06:02:18.968Z,5.30
2022-11-20T06:04:45.783Z,5.30
2022-11-20T06:07:12.656Z,5.30
2022-11-20T06:09:39.530Z,5.30
2022-11-20T06:12:06.797Z,5.20
2022-11-20T06:14:34.162Z,5.20
2022-11-20T06:17:01.679Z,5.20
2022-11-20T06:19:28.478Z,5.10
2022-11-20T06:21:55.430Z,5.10
2022-11-20T06:24:22.265Z,5.00
2022-11-20T06:26:49.215Z,4.90
2022-11-20T06:29:16.020Z,4.90
2022-11-20T06:31:43.585Z,4.80
2022-11-20T06:34:10.503Z,4.80
2022-11-20T06:36:37.381Z,4.80
2022-11-20T06:39:04.219Z,4.90
2022-11-20T06:41:31.056Z,4.90
2022-11-20T06:43:57.842Z,5.00
2022-11-20T06:46:24.722Z,5.00
2022-11-20T06:48:52.063Z,5.00
2022-11-20T06:51:19.095Z,5.10
2022-11-20T06:53:46.040Z,5.10
2022-11-20T06:56:12.905Z,5.10
2022-11-20T06:58:39.867Z,5.10
2022-11-20T07:01:15.015Z,5.20
2022-11-20T07:03:43.096Z,5.20
2022-11-20T07:06:10.458Z,5.30
2022-11-20T07:08:37.510Z,5.40
2022-11-20T07:11:06.722Z,5.50
2022-11-20T07:13:34.059Z,5.50
2022-11-20T07:16:03.260Z,5.50
2022-11-20T07:18:30.659Z,5.50
2022-11-20T07:20:57.499Z,5.50
2022-11-20T07:23:24.371Z,5.50
2022-11-20T07:25:51.244Z,5.50
2022-11-20T07:28:18.120Z,5.50
2022-11-20T07:30:51.215Z,5.60
2022-11-20T07:33:18.075Z,5.60
2022-11-20T07:35:44.903Z,5.60
2022-11-20T07:38:11.762Z,5.60
2022-11-20T07:40:38.558Z,5.60
2022-11-20T07:43:05.404Z,5.60
2022-11-20T07:45:32.202Z,5.70
2022-11-20T07:47:59.017Z,5.70
2022-11-20T07:50:26.030Z,5.70
2022-11-20T07:52:53.596Z,5.70
2022-11-20T07:55:20.401Z,5.70
2022-11-20T07:57:47.216Z,5.70
2022-11-20T08:00:14.891Z,5.70
2022-11-20T08:02:42.353Z,5.80
2022-11-20T08:05:10.585Z,5.80
2022-11-20T08:07:42.124Z,5.80
2022-11-20T08:10:11.756Z,5.80
2022-11-20T08:13:07.378Z,5.90
2022-11-20T08:15:34.819Z,5.90
2022-11-20T08:20:53.885Z,5.90
2022-11-20T08:23:20.734Z,5.90
2022-11-20T08:25:50.989Z,6.00
2022-11-20T08:28:21.316Z,6.00
2022-11-20T08:30:49.787Z,6.00
2022-11-20T08:33:18.340Z,6.00
2022-11-20T08:35:45.476Z,6.10
2022-11-20T08:38:12.405Z,6.20
2022-11-20T08:40:39.223Z,6.30
2022-11-20T08:43:06.086Z,6.40
2022-11-20T08:45:35.012Z,6.50
2022-11-20T08:48:04.000Z,6.50
2022-11-20T08:50:33.205Z,6.60
2022-11-20T08:53:04.935Z,6.70
2022-11-20T08:55:32.029Z,6.70
2022-11-20T08:57:58.842Z,6.70
2022-11-20T09:00:25.687Z,6.70
2022-11-20T09:02:53.380Z,6.70
2022-11-20T09:05:20.327Z,6.70
2022-11-20T09:07:47.206Z,6.70
2022-11-20T09:10:23.956Z,6.70
2022-11-20T09:12:53.328Z,6.70
2022-11-20T09:15:20.572Z,6.70
2022-11-20T09:17:59.221Z,6.80
2022-11-20T09:20:27.221Z,6.90
2022-11-20T09:22:54.040Z,7.10
2022-11-20T09:25:20.903Z,7.10
2022-11-20T09:27:48.035Z,7.30
2022-11-20T09:30:17.129Z,7.30
2022-11-20T09:32:44.307Z,7.30
2022-11-20T09:35:12.090Z,7.40
2022-11-20T09:37:39.348Z,7.30
2022-11-20T09:40:06.970Z,7.20
2022-11-20T09:42:36.574Z,7.20
2022-11-20T09:45:11.633Z,7.20
2022-11-20T09:48:19.627Z,7.30
2022-11-20T09:51:12.673Z,7.40
2022-11-20T09:53:51.895Z,7.50
2022-11-20T09:56:22.527Z,7.70
2022-11-20T09:58:52.782Z,7.80
2022-11-20T10:01:22.172Z,7.90
2022-11-20T10:04:06.066Z,8.00
2022-11-20T10:07:10.587Z,8.20
2022-11-20T10:09:45.024Z,8.40
2022-11-20T10:12:39.963Z,9.10
2022-11-20T10:15:15.850Z,9.40
2022-11-20T10:18:16.005Z,9.60
2022-11-20T10:21:01.672Z,9.50
2022-11-20T10:24:04.706Z,9.40
2022-11-20T10:26:59.588Z,9.00
2022-11-20T10:29:34.230Z,8.60
2022-11-20T10:32:19.885Z,8.40
2022-11-20T10:34:59.126Z,8.40
2022-11-20T10:37:27.763Z,8.40
2022-11-20T10:40:00.968Z,8.50
2022-11-20T10:43:09.039Z,8.60
2022-11-20T10:45:48.618Z,8.60
2022-11-20T10:48:26.434Z,8.50
2022-11-20T10:51:11.897Z,8.40
2022-11-20T10:53:59.875Z,8.60
2022-11-20T10:56:49.980Z,8.60
2022-11-20T10:59:17.767Z,8.60
2022-11-20T11:01:44.802Z,8.60
2022-11-20T11:04:29.711Z,8.60
2022-11-20T11:07:06.129Z,8.50
2022-11-20T11:09:42.426Z,8.30
2022-11-20T11:12:12.872Z,8.30
2022-11-20T11:14:47.855Z,8.70
2022-11-20T11:17:34.620Z,9.60
2022-11-20T11:20:23.264Z,10.50
2022-11-20T11:22:52.847Z,10.30
2022-11-20T11:25:31.436Z,9.80
2022-11-20T11:28:04.189Z,9.70
2022-11-20T11:30:41.907Z,9.40
2022-11-20T11:33:14.069Z,9.10
2022-11-20T11:35:53.700Z,9.30
2022-11-20T11:38:32.051Z,9.90
2022-11-20T11:40:59.491Z,9.90
2022-11-20T11:43:48.072Z,9.80
2022-11-20T11:46:35.899Z,9.40
2022-11-20T11:49:16.983Z,9.30
2022-11-20T11:51:51.172Z,9.10
2022-11-20T11:54:25.016Z,9.20
2022-11-20T11:56:52.733Z,9.20
2022-11-20T11:59:43.178Z,9.20
2022-11-20T12:02:37.877Z,9.00
2022-11-20T12:05:25.552Z,8.90
2022-11-20T12:08:23.943Z,8.60
2022-11-20T12:11:03.419Z,8.30
2022-11-20T12:13:36.506Z,8.00
2022-11-20T12:16:05.268Z,7.60
2022-11-20T12:18:32.402Z,7.40
2022-11-20T12:21:25.484Z,7.30
2022-11-20T12:24:15.307Z,7.20
2022-11-20T12:26:50.446Z,7.20
2022-11-20T12:29:30.078Z,7.20
2022-11-20T12:32:22.987Z,7.30
2022-11-20T12:35:22.240Z,7.30
2022-11-20T12:38:17.316Z,7.40
2022-11-20T12:41:01.467Z,7.40
2022-11-20T12:44:01.843Z,7.40
2022-11-20T12:46:44.667Z,7.50
2022-11-20T12:49:26.766Z,7.60
2022-11-20T12:52:03.846Z,7.70
2022-11-20T12:54:39.671Z,7.80
2022-11-20T12:57:20.597Z,7.70
2022-11-20T13:00:15.483Z,7.60
2022-11-20T13:03:10.334Z,7.40
2022-11-20T13:05:49.239Z,7.20
2022-11-20T13:08:37.546Z,7.10
2022-11-20T13:11:24.328Z,7.00
2022-11-20T13:14:03.048Z,7.00
2022-11-20T13:16:46.623Z,7.00
2022-11-20T13:19:15.984Z,7.00
2022-11-20T13:21:50.123Z,6.90
2022-11-20T13:24:20.518Z,6.90
2022-11-20T13:26:48.260Z,6.70
2022-11-20T13:29:21.389Z,6.60
2022-11-20T13:31:49.825Z,6.50
2022-11-20T13:34:27.707Z,6.50
2022-11-20T13:36:57.414Z,6.60
2022-11-20T13:39:45.140Z,6.60
2022-11-20T13:42:15.451Z,6.60
2022-11-20T13:44:54.335Z,6.60
2022-11-20T13:47:23.393Z,6.70
2022-11-20T13:49:52.155Z,6.70
2022-11-20T13:52:56.612Z,6.80
2022-11-20T13:55:53.091Z,6.80
2022-11-20T13:58:52.869Z,6.80
2022-11-20T14:01:29.547Z,6.80
2022-11-20T14:04:06.005Z,6.70
2022-11-20T14:06:39.791Z,6.70
2022-11-20T14:09:11.700Z,6.70
2022-11-20T14:11:47.651Z,6.70
2022-11-20T14:14:20.079Z,6.70
2022-11-20T14:16:47.631Z,6.80
2022-11-20T14:19:29.009Z,6.80
2022-11-20T14:22:17.984Z,6.80
2022-11-20T14:24:45.193Z,6.80
2022-11-20T14:27:18.335Z,6.80
2022-11-20T14:29:47.076Z,6.80
2022-11-20T14:32:18.115Z,6.80
2022-11-20T14:34:47.239Z,6.70
2022-11-20T14:37:19.425Z,6.80
2022-11-20T14:39:55.581Z,6.80
2022-11-20T14:42:25.274Z,6.70
2022-11-20T14:44:56.462Z,6.70
2022-11-20T14:47:26.265Z,6.70
2022-11-20T14:49:54.716Z,6.70
2022-11-20T14:52:27.271Z,6.70
2022-11-20T14:54:57.076Z,6.70
2022-11-20T14:57:35.695Z,6.60
2022-11-20T15:00:08.760Z,6.60
2022-11-20T15:02:39.930Z,6.60
2022-11-20T15:05:07.051Z,6.60
2022-11-20T15:07:36.365Z,6.60
2022-11-20T15:10:09.682Z,6.50
2022-11-20T15:12:40.773Z,6.50
2022-11-20T15:15:11.793Z,6.50
2022-11-20T15:17:41.512Z,6.40
2022-11-20T15:20:16.058Z,6.40
2022-11-20T15:22:43.359Z,6.40
2022-11-20T15:25:18.059Z,6.40
2022-11-20T15:27:46.033Z,6.40
2022-11-20T15:30:18.721Z,6.30
2022-11-20T15:32:47.239Z,6.30
2022-11-20T15:35:15.712Z,6.30
2022-11-20T15:37:43.293Z,6.30
2022-11-20T15:40:10.768Z,6.30
2022-11-20T15:42:37.672Z,6.30
2022-11-20T15:45:05.055Z,6.20
2022-11-20T15:47:34.592Z,6.10
2022-11-20T15:50:01.674Z,6.10
2022-11-20T15:52:30.569Z,6.00
2022-11-20T15:55:09.662Z,5.90
2022-11-20T15:57:36.762Z,5.90
2022-11-20T16:00:04.549Z,5.80
2022-11-20T16:02:31.369Z,5.80
2022-11-20T16:04:58.216Z,5.90
2022-11-20T16:07:25.151Z,5.90
2022-11-20T16:09:52.096Z,5.90
2022-11-20T16:12:38.846Z,5.80
2022-11-20T16:15:24.507Z,5.70
2022-11-20T16:17:52.049Z,5.60
2022-11-20T16:20:18.967Z,5.50
2022-11-20T16:22:45.770Z,5.40
2022-11-20T16:25:12.777Z,5.20
2022-11-20T16:27:39.585Z,5.10
2022-11-20T16:30:07.805Z,5.00
2022-11-20T16:32:34.735Z,5.00
2022-11-20T16:35:01.623Z,4.90
2022-11-20T16:37:28.412Z,4.80
2022-11-20T16:39:57.337Z,4.70
2022-11-20T16:42:24.178Z,4.60
2022-11-20T16:44:51.029Z,4.60
2022-11-20T16:47:17.848Z,4.50
2022-11-20T16:49:44.666Z,4.40
2022-11-20T16:52:11.464Z,4.40
2022-11-20T16:54:38.287Z,4.30
2022-11-20T16:57:05.080Z,4.30
2022-11-20T16:59:31.914Z,4.30
2022-11-20T17:01:59.237Z,4.30
2022-11-20T17:04:26.439Z,4.30
2022-11-20T17:06:53.449Z,4.30
2022-11-20T17:09:20.254Z,4.40
2022-11-20T17:11:49.026Z,4.40
2022-11-20T17:14:15.883Z,4.40
2022-11-20T17:16:43.191Z,4.40
2022-11-20T17:19:10.280Z,4.30
2022-11-20T17:21:37.526Z,4.30
2022-11-20T17:24:09.227Z,4.20
2022-11-20T17:26:37.353Z,4.10
2022-11-20T17:29:16.038Z,4.10
2022-11-20T17:31:43.871Z,4.10
2022-11-20T17:34:13.322Z,4.10
2022-11-20T17:36:45.195Z,4.10
2022-11-20T17:39:14.272Z,4.10
2022-11-20T17:41:41.456Z,4.00
2022-11-20T17:44:10.312Z,4.00
2022-11-20T17:46:37.172Z,3.90
2022-11-20T17:49:04.900Z,3.90
2022-11-20T17:51:34.944Z,3.90
2022-11-20T17:54:04.135Z,3.90
2022-11-20T17:56:51.110Z,3.90
2022-11-20T17:59:18.921Z,3.90
2022-11-20T18:01:46.055Z,4.00
2022-11-20T18:04:13.749Z,4.10
2022-11-20T18:06:41.942Z,4.10
2022-11-20T18:09:09.115Z,4.10
2022-11-20T18:11:38.511Z,4.10
2022-11-20T18:14:26.436Z,4.00
2022-11-20T18:16:58.541Z,4.00
2022-11-20T18:19:32.147Z,4.00
2022-11-20T18:22:01.452Z,4.00
2022-11-20T18:24:28.431Z,4.10
2022-11-20T18:26:55.585Z,4.10
2022-11-20T18:29:22.694Z,4.10
2022-11-20T18:31:50.142Z,4.20
2022-11-20T18:34:17.420Z,4.20
2022-11-20T18:36:45.301Z,4.20
2022-11-20T18:39:13.664Z,4.20
2022-11-20T18:41:59.494Z,4.20
2022-11-20T18:44:49.782Z,4.20
2022-11-20T18:47:19.337Z,4.10
2022-11-20T18:49:52.746Z,4.10
2022-11-20T18:52:25.330Z,4.00
2022-11-20T18:54:52.888Z,4.00
2022-11-20T18:57:22.371Z,3.90
2022-11-20T18:59:49.441Z,3.90
2022-11-20T19:02:18.565Z,3.90
2022-11-20T19:04:45.557Z,3.80
2022-11-20T19:07:13.260Z,3.90
2022-11-20T19:09:47.595Z,3.90
2022-11-20T19:12:14.479Z,3.90
2022-11-20T19:14:41.555Z,4.00
2022-11-20T19:17:11.080Z,4.00
2022-11-20T19:19:37.914Z,4.00
2022-11-20T19:22:04.788Z,3.90
2022-11-20T19:24:31.959Z,3.90
2022-11-20T19:26:58.828Z,3.90
2022-11-20T19:29:26.882Z,3.90
2022-11-20T19:31:53.996Z,3.90
2022-11-20T19:34:20.950Z,3.90
2022-11-20T19:36:48.436Z,3.90
2022-11-20T19:39:15.490Z,4.00
2022-11-20T19:41:43.289Z,4.00
2022-11-20T19:44:14.142Z,4.10
2022-11-20T19:46:42.111Z,4.10
2022-11-20T19:49:11.576Z,4.20
2022-11-20T19:51:43.857Z,4.20
2022-11-20T19:54:10.723Z,4.20
2022-11-20T19:56:37.518Z,4.20
2022-11-20T19:59:04.634Z,4.20
2022-11-20T20:01:31.946Z,4.10
2022-11-20T20:04:05.540Z,4.10
2022-11-20T20:06:35.310Z,4.10
2022-11-20T20:09:05.249Z,4.20
2022-11-20T20:11:34.140Z,4.20
2022-11-20T20:14:02.885Z,4.20
2022-11-20T20:16:29.882Z,4.20
2022-11-20T20:18:58.563Z,4.20
2022-11-20T20:21:25.686Z,4.20
2022-11-20T20:23:54.803Z,4.10
2022-11-20T20:26:23.256Z,4.10
2022-11-20T20:28:50.845Z,4.10
2022-11-20T20:31:21.646Z,4.10
2022-11-20T20:33:48.932Z,4.10
2022-11-20T20:36:17.707Z,4.20
2022-11-20T20:38:46.337Z,4.20
2022-11-20T20:41:14.505Z,4.20
2022-11-20T20:44:00.007Z,4.30
2022-11-20T20:46:26.841Z,4.30
2022-11-20T20:48:54.835Z,4.30
2022-11-20T20:51:23.900Z,4.30
2022-11-20T20:53:51.078Z,4.40
2022-11-20T20:56:18.558Z,4.40
2022-11-20T20:58:45.778Z,4.40
2022-11-20T21:01:15.163Z,4.50
2022-11-20T21:03:42.581Z,4.60
2022-11-20T21:06:10.897Z,4.60
2022-11-20T21:08:40.809Z,4.70
2022-11-20T21:11:09.914Z,4.70
2022-11-20T21:13:37.681Z,4.80
2022-11-20T21:16:04.932Z,4.80
2022-11-20T21:18:32.429Z,5.00
2022-11-20T21:21:18.263Z,5.20
2022-11-20T21:23:48.221Z,5.30
2022-11-20T21:26:16.188Z,5.30
2022-11-20T21:28:43.426Z,5.40
2022-11-20T21:31:13.384Z,5.50
2022-11-20T21:33:44.863Z,5.50
2022-11-20T21:36:14.172Z,5.40
2022-11-20T21:38:41.187Z,5.50
2022-11-20T21:41:09.780Z,5.40
2022-11-20T21:43:37.243Z,5.40
2022-11-20T21:46:06.675Z,5.40
2022-11-20T21:48:36.728Z,5.40
2022-11-20T21:51:12.036Z,5.40
2022-11-20T21:53:39.625Z,5.30
2022-11-20T21:56:08.984Z,5.20
2022-11-20T21:58:37.148Z,5.10
2022-11-20T22:01:11.149Z,5.00
2022-11-20T22:03:39.177Z,4.90
2022-11-20T22:06:07.482Z,4.80
2022-11-20T22:08:36.115Z,4.80
2022-11-20T22:11:06.086Z,4.70
2022-11-20T22:13:52.132Z,4.70
2022-11-20T22:16:18.972Z,4.60
2022-11-20T22:18:48.171Z,4.60
2022-11-20T22:21:16.710Z,4.60
2022-11-20T22:23:43.508Z,4.60
2022-11-20T22:26:16.198Z,4.60
2022-11-20T22:28:43.624Z,4.50
2022-11-20T22:31:11.732Z,4.50
2022-11-20T22:33:39.083Z,4.50
2022-11-20T22:36:14.650Z,4.60
2022-11-20T22:38:41.701Z,4.50
2022-11-20T22:41:13.697Z,4.50
2022-11-20T22:43:41.980Z,4.50
2022-11-20T22:46:11.047Z,4.40
2022-11-20T22:48:40.417Z,4.40
2022-11-20T22:51:14.713Z,4.30
2022-11-20T22:53:42.895Z,4.20
2022-11-20T22:56:14.476Z,4.20
2022-11-20T22:58:43.759Z,4.10
2022-11-20T23:01:19.017Z,4.10
2022-11-20T23:03:48.361Z,4.10
2022-11-20T23:06:16.561Z,4.00
2022-11-20T23:08:44.159Z,4.00
2022-11-20T23:11:19.552Z,4.00
2022-11-20T23:13:48.233Z,4.00
2022-11-20T23:16:17.831Z,3.90
2022-11-20T23:18:44.902Z,3.90
2022-11-20T23:21:17.326Z,3.90
2022-11-20T23:23:48.406Z,3.80
2022-11-20T23:26:16.639Z,3.80
2022-11-20T23:28:44.161Z,3.90
2022-11-20T23:31:12.665Z,3.90
2022-11-20T23:33:41.206Z,3.90
2022-11-20T23:36:08.465Z,3.90
2022-11-20T23:38:35.624Z,3.90
2022-11-20T23:41:03.017Z,3.90
2022-11-20T23:43:30.124Z,3.90
2022-11-20T23:45:58.689Z,3.90
2022-11-20T23:48:28.299Z,3.90
2022-11-20T23:50:55.548Z,3.90
2022-11-20T23:53:22.860Z,3.90
2022-11-20T23:55:52.001Z,3.90
2022-11-20T23:58:20.181Z,3.90
